sensor_id;sensor_type;location;lat;lon;timestamp;temperature;humidity
33903;DHT22;20194;50.950;5.346;2023-07-02T00:01:43;17.50;65.60
33903;DHT22;20194;50.950;5.346;2023-07-02T00:04:09;17.50;65.30
33903;DHT22;20194;50.950;5.346;2023-07-02T00:06:36;17.60;63.50
33903;DHT22;20194;50.950;5.346;2023-07-02T00:09:08;17.50;63.70
33903;DHT22;20194;50.950;5.346;2023-07-02T00:11:36;17.30;65.00
33903;DHT22;20194;50.950;5.346;2023-07-02T00:14:02;17.40;63.90
33903;DHT22;20194;50.950;5.346;2023-07-02T00:16:27;17.30;64.80
33903;DHT22;20194;50.950;5.346;2023-07-02T00:18:53;17.30;64.60
33903;DHT22;20194;50.950;5.346;2023-07-02T00:21:19;17.30;65.30
33903;DHT22;20194;50.950;5.346;2023-07-02T00:23:46;17.30;65.00
33903;DHT22;20194;50.950;5.346;2023-07-02T00:26:12;17.30;63.40
33903;DHT22;20194;50.950;5.346;2023-07-02T00:28:38;17.30;64.10
33903;DHT22;20194;50.950;5.346;2023-07-02T00:31:04;17.30;63.80
33903;DHT22;20194;50.950;5.346;2023-07-02T00:33:31;17.30;64.20
33903;DHT22;20194;50.950;5.346;2023-07-02T00:35:57;17.20;64.60
33903;DHT22;20194;50.950;5.346;2023-07-02T00:38:26;17.20;64.70
33903;DHT22;20194;50.950;5.346;2023-07-02T00:40:51;17.20;65.10
33903;DHT22;20194;50.950;5.346;2023-07-02T00:43:17;17.10;65.80
33903;DHT22;20194;50.950;5.346;2023-07-02T00:45:44;17.10;65.70
33903;DHT22;20194;50.950;5.346;2023-07-02T00:48:10;17.00;66.70
33903;DHT22;20194;50.950;5.346;2023-07-02T00:50:35;17.00;67.10
33903;DHT22;20194;50.950;5.346;2023-07-02T00:53:01;17.10;65.80
33903;DHT22;20194;50.950;5.346;2023-07-02T00:55:27;17.10;65.80
33903;DHT22;20194;50.950;5.346;2023-07-02T00:57:53;17.10;65.70
33903;DHT22;20194;50.950;5.346;2023-07-02T01:00:19;17.10;65.50
33903;DHT22;20194;50.950;5.346;2023-07-02T01:02:53;17.00;65.30
33903;DHT22;20194;50.950;5.346;2023-07-02T01:05:22;17.10;65.80
33903;DHT22;20194;50.950;5.346;2023-07-02T01:07:48;17.10;66.20
33903;DHT22;20194;50.950;5.346;2023-07-02T01:10:14;17.10;65.00
33903;DHT22;20194;50.950;5.346;2023-07-02T01:12:40;17.20;64.90
33903;DHT22;20194;50.950;5.346;2023-07-02T01:15:07;17.20;64.50
33903;DHT22;20194;50.950;5.346;2023-07-02T01:17:34;17.30;64.40
33903;DHT22;20194;50.950;5.346;2023-07-02T01:20:07;17.30;63.60
33903;DHT22;20194;50.950;5.346;2023-07-02T01:22:33;17.20;64.80
33903;DHT22;20194;50.950;5.346;2023-07-02T01:24:59;17.30;64.60
33903;DHT22;20194;50.950;5.346;2023-07-02T01:27:28;17.30;64.40
33903;DHT22;20194;50.950;5.346;2023-07-02T01:29:54;17.20;63.90
33903;DHT22;20194;50.950;5.346;2023-07-02T01:32:21;17.20;65.70
33903;DHT22;20194;50.950;5.346;2023-07-02T01:34:46;17.10;65.40
33903;DHT22;20194;50.950;5.346;2023-07-02T01:37:14;17.10;65.50
33903;DHT22;20194;50.950;5.346;2023-07-02T01:39:40;17.10;66.60
33903;DHT22;20194;50.950;5.346;2023-07-02T01:42:12;17.00;66.00
33903;DHT22;20194;50.950;5.346;2023-07-02T01:44:41;17.00;67.70
33903;DHT22;20194;50.950;5.346;2023-07-02T01:47:07;16.90;68.00
33903;DHT22;20194;50.950;5.346;2023-07-02T01:49:33;16.90;68.10
33903;DHT22;20194;50.950;5.346;2023-07-02T01:52:00;16.90;68.00
33903;DHT22;20194;50.950;5.346;2023-07-02T01:54:27;16.90;68.10
33903;DHT22;20194;50.950;5.346;2023-07-02T01:56:53;17.00;67.60
33903;DHT22;20194;50.950;5.346;2023-07-02T01:59:19;16.90;68.90
33903;DHT22;20194;50.950;5.346;2023-07-02T02:01:45;16.80;69.40
33903;DHT22;20194;50.950;5.346;2023-07-02T02:04:11;16.80;69.90
33903;DHT22;20194;50.950;5.346;2023-07-02T02:06:38;16.80;69.30
33903;DHT22;20194;50.950;5.346;2023-07-02T02:09:04;16.80;70.50
33903;DHT22;20194;50.950;5.346;2023-07-02T02:11:31;16.80;69.60
33903;DHT22;20194;50.950;5.346;2023-07-02T02:13:57;16.80;70.30
33903;DHT22;20194;50.950;5.346;2023-07-02T02:16:23;16.80;70.40
33903;DHT22;20194;50.950;5.346;2023-07-02T02:18:49;16.90;68.70
33903;DHT22;20194;50.950;5.346;2023-07-02T02:21:17;17.00;67.70
33903;DHT22;20194;50.950;5.346;2023-07-02T02:23:44;16.90;68.60
33903;DHT22;20194;50.950;5.346;2023-07-02T02:26:09;16.90;69.70
33903;DHT22;20194;50.950;5.346;2023-07-02T02:28:36;16.80;69.20
33903;DHT22;20194;50.950;5.346;2023-07-02T02:31:01;16.90;69.80
33903;DHT22;20194;50.950;5.346;2023-07-02T02:33:27;17.00;68.50
33903;DHT22;20194;50.950;5.346;2023-07-02T02:35:54;17.00;68.10
33903;DHT22;20194;50.950;5.346;2023-07-02T02:38:19;16.90;68.10
33903;DHT22;20194;50.950;5.346;2023-07-02T02:40:45;16.80;70.80
33903;DHT22;20194;50.950;5.346;2023-07-02T02:43:10;16.70;71.70
33903;DHT22;20194;50.950;5.346;2023-07-02T02:45:36;16.80;71.90
33903;DHT22;20194;50.950;5.346;2023-07-02T02:48:02;16.80;71.00
33903;DHT22;20194;50.950;5.346;2023-07-02T02:50:28;16.80;71.50
33903;DHT22;20194;50.950;5.346;2023-07-02T02:52:53;17.00;70.30
33903;DHT22;20194;50.950;5.346;2023-07-02T02:55:19;17.00;69.70
33903;DHT22;20194;50.950;5.346;2023-07-02T02:57:44;16.90;69.90
33903;DHT22;20194;50.950;5.346;2023-07-02T03:00:11;16.80;70.40
33903;DHT22;20194;50.950;5.346;2023-07-02T03:02:38;16.80;71.80
33903;DHT22;20194;50.950;5.346;2023-07-02T03:05:05;16.90;71.30
33903;DHT22;20194;50.950;5.346;2023-07-02T03:07:32;17.00;70.40
33903;DHT22;20194;50.950;5.346;2023-07-02T03:09:58;17.00;70.30
33903;DHT22;20194;50.950;5.346;2023-07-02T03:12:25;17.00;69.60
33903;DHT22;20194;50.950;5.346;2023-07-02T03:14:52;17.20;68.80
33903;DHT22;20194;50.950;5.346;2023-07-02T03:17:19;17.00;69.00
33903;DHT22;20194;50.950;5.346;2023-07-02T03:19:45;17.10;70.00
33903;DHT22;20194;50.950;5.346;2023-07-02T03:22:10;17.10;68.80
33903;DHT22;20194;50.950;5.346;2023-07-02T03:24:36;17.00;69.10
33903;DHT22;20194;50.950;5.346;2023-07-02T03:27:02;17.10;69.90
33903;DHT22;20194;50.950;5.346;2023-07-02T03:29:28;17.10;69.80
33903;DHT22;20194;50.950;5.346;2023-07-02T03:31:53;16.90;71.30
33903;DHT22;20194;50.950;5.346;2023-07-02T03:34:19;16.90;72.30
33903;DHT22;20194;50.950;5.346;2023-07-02T03:36:45;16.90;71.60
33903;DHT22;20194;50.950;5.346;2023-07-02T03:39:10;16.90;72.50
33903;DHT22;20194;50.950;5.346;2023-07-02T03:41:37;17.00;71.20
33903;DHT22;20194;50.950;5.346;2023-07-02T03:44:02;17.00;71.30
33903;DHT22;20194;50.950;5.346;2023-07-02T03:46:28;17.10;70.30
33903;DHT22;20194;50.950;5.346;2023-07-02T03:48:55;17.10;70.90
33903;DHT22;20194;50.950;5.346;2023-07-02T03:51:21;17.20;70.40
33903;DHT22;20194;50.950;5.346;2023-07-02T03:53:47;17.10;70.70
33903;DHT22;20194;50.950;5.346;2023-07-02T03:56:13;17.00;70.90
33903;DHT22;20194;50.950;5.346;2023-07-02T03:58:42;17.00;71.40
33903;DHT22;20194;50.950;5.346;2023-07-02T04:01:08;16.80;73.50
33903;DHT22;20194;50.950;5.346;2023-07-02T04:03:34;16.70;75.30
33903;DHT22;20194;50.950;5.346;2023-07-02T04:05:59;16.70;75.80
33903;DHT22;20194;50.950;5.346;2023-07-02T04:08:25;16.70;76.90
33903;DHT22;20194;50.950;5.346;2023-07-02T04:10:53;16.70;75.50
33903;DHT22;20194;50.950;5.346;2023-07-02T04:13:19;16.70;76.40
33903;DHT22;20194;50.950;5.346;2023-07-02T04:15:45;16.60;77.80
33903;DHT22;20194;50.950;5.346;2023-07-02T04:18:11;16.60;78.10
33903;DHT22;20194;50.950;5.346;2023-07-02T04:20:36;16.50;78.60
33903;DHT22;20194;50.950;5.346;2023-07-02T04:23:05;16.50;78.40
33903;DHT22;20194;50.950;5.346;2023-07-02T04:25:31;16.50;78.70
33903;DHT22;20194;50.950;5.346;2023-07-02T04:27:56;16.50;79.50
33903;DHT22;20194;50.950;5.346;2023-07-02T04:30:24;16.60;79.50
33903;DHT22;20194;50.950;5.346;2023-07-02T04:32:51;16.70;77.60
33903;DHT22;20194;50.950;5.346;2023-07-02T04:35:17;16.60;78.70
33903;DHT22;20194;50.950;5.346;2023-07-02T04:37:42;16.60;78.50
33903;DHT22;20194;50.950;5.346;2023-07-02T04:40:08;16.50;79.60
33903;DHT22;20194;50.950;5.346;2023-07-02T04:42:41;16.50;80.20
33903;DHT22;20194;50.950;5.346;2023-07-02T04:45:09;16.40;80.70
33903;DHT22;20194;50.950;5.346;2023-07-02T04:47:34;16.50;80.70
33903;DHT22;20194;50.950;5.346;2023-07-02T04:50:00;16.50;82.00
33903;DHT22;20194;50.950;5.346;2023-07-02T04:52:26;16.60;80.90
33903;DHT22;20194;50.950;5.346;2023-07-02T04:54:52;16.60;80.50
33903;DHT22;20194;50.950;5.346;2023-07-02T04:57:18;16.60;80.80
33903;DHT22;20194;50.950;5.346;2023-07-02T04:59:44;16.50;81.70
33903;DHT22;20194;50.950;5.346;2023-07-02T05:02:10;16.50;82.00
33903;DHT22;20194;50.950;5.346;2023-07-02T05:04:36;16.50;82.50
33903;DHT22;20194;50.950;5.346;2023-07-02T05:07:05;16.60;81.50
33903;DHT22;20194;50.950;5.346;2023-07-02T05:09:31;16.80;80.60
33903;DHT22;20194;50.950;5.346;2023-07-02T05:11:57;16.80;79.80
33903;DHT22;20194;50.950;5.346;2023-07-02T05:14:24;16.90;80.20
33903;DHT22;20194;50.950;5.346;2023-07-02T05:16:50;16.80;79.70
33903;DHT22;20194;50.950;5.346;2023-07-02T05:19:16;16.80;81.10
33903;DHT22;20194;50.950;5.346;2023-07-02T05:21:42;16.80;80.30
33903;DHT22;20194;50.950;5.346;2023-07-02T05:24:08;16.80;81.00
33903;DHT22;20194;50.950;5.346;2023-07-02T05:26:34;16.80;81.30
33903;DHT22;20194;50.950;5.346;2023-07-02T05:29:01;16.80;80.60
33903;DHT22;20194;50.950;5.346;2023-07-02T05:31:26;16.80;81.00
33903;DHT22;20194;50.950;5.346;2023-07-02T05:33:56;16.90;81.40
33903;DHT22;20194;50.950;5.346;2023-07-02T05:36:22;17.00;80.40
33903;DHT22;20194;50.950;5.346;2023-07-02T05:38:47;17.00;79.80
33903;DHT22;20194;50.950;5.346;2023-07-02T05:41:20;16.90;80.10
33903;DHT22;20194;50.950;5.346;2023-07-02T05:43:47;17.00;81.20
33903;DHT22;20194;50.950;5.346;2023-07-02T05:46:13;17.00;80.40
33903;DHT22;20194;50.950;5.346;2023-07-02T05:48:40;17.00;80.30
33903;DHT22;20194;50.950;5.346;2023-07-02T05:51:06;17.00;80.40
33903;DHT22;20194;50.950;5.346;2023-07-02T05:53:31;17.00;81.40
33903;DHT22;20194;50.950;5.346;2023-07-02T05:55:57;17.00;80.10
33903;DHT22;20194;50.950;5.346;2023-07-02T05:58:23;17.20;80.10
33903;DHT22;20194;50.950;5.346;2023-07-02T06:00:49;17.50;80.30
33903;DHT22;20194;50.950;5.346;2023-07-02T06:03:16;18.10;73.60
33903;DHT22;20194;50.950;5.346;2023-07-02T06:05:47;17.90;72.90
33903;DHT22;20194;50.950;5.346;2023-07-02T06:08:13;17.80;73.70
33903;DHT22;20194;50.950;5.346;2023-07-02T06:10:39;17.60;75.30
33903;DHT22;20194;50.950;5.346;2023-07-02T06:13:05;17.40;76.80
33903;DHT22;20194;50.950;5.346;2023-07-02T06:15:30;17.40;77.50
33903;DHT22;20194;50.950;5.346;2023-07-02T06:17:56;17.70;76.80
33903;DHT22;20194;50.950;5.346;2023-07-02T06:20:22;17.70;74.90
33903;DHT22;20194;50.950;5.346;2023-07-02T06:22:48;17.50;76.50
33903;DHT22;20194;50.950;5.346;2023-07-02T06:25:13;17.50;77.00
33903;DHT22;20194;50.950;5.346;2023-07-02T06:27:39;17.50;77.30
33903;DHT22;20194;50.950;5.346;2023-07-02T06:30:05;17.30;77.80
33903;DHT22;20194;50.950;5.346;2023-07-02T06:32:31;17.40;79.60
33903;DHT22;20194;50.950;5.346;2023-07-02T06:34:57;17.40;78.70
33903;DHT22;20194;50.950;5.346;2023-07-02T06:37:23;17.40;79.00
33903;DHT22;20194;50.950;5.346;2023-07-02T06:39:49;17.70;78.30
33903;DHT22;20194;50.950;5.346;2023-07-02T06:42:14;17.80;76.10
33903;DHT22;20194;50.950;5.346;2023-07-02T06:44:41;17.80;75.90
33903;DHT22;20194;50.950;5.346;2023-07-02T06:47:07;18.00;72.20
33903;DHT22;20194;50.950;5.346;2023-07-02T06:49:33;17.80;72.40
33903;DHT22;20194;50.950;5.346;2023-07-02T06:51:58;17.80;75.30
33903;DHT22;20194;50.950;5.346;2023-07-02T06:54:26;17.90;74.30
33903;DHT22;20194;50.950;5.346;2023-07-02T06:56:51;18.20;73.10
33903;DHT22;20194;50.950;5.346;2023-07-02T06:59:20;18.40;70.30
33903;DHT22;20194;50.950;5.346;2023-07-02T07:01:47;18.50;68.60
33903;DHT22;20194;50.950;5.346;2023-07-02T07:04:12;18.60;68.80
33903;DHT22;20194;50.950;5.346;2023-07-02T07:06:38;18.50;68.40
33903;DHT22;20194;50.950;5.346;2023-07-02T07:09:04;18.60;68.70
33903;DHT22;20194;50.950;5.346;2023-07-02T07:11:30;18.70;64.30
33903;DHT22;20194;50.950;5.346;2023-07-02T07:13:55;18.60;63.20
33903;DHT22;20194;50.950;5.346;2023-07-02T07:16:21;18.70;64.70
33903;DHT22;20194;50.950;5.346;2023-07-02T07:18:48;18.70;64.90
33903;DHT22;20194;50.950;5.346;2023-07-02T07:21:14;18.70;64.80
33903;DHT22;20194;50.950;5.346;2023-07-02T07:23:40;18.50;65.00
33903;DHT22;20194;50.950;5.346;2023-07-02T07:26:06;18.70;64.40
33903;DHT22;20194;50.950;5.346;2023-07-02T07:28:32;18.70;60.00
33903;DHT22;20194;50.950;5.346;2023-07-02T07:30:57;18.70;59.10
33903;DHT22;20194;50.950;5.346;2023-07-02T07:33:23;18.70;59.20
33903;DHT22;20194;50.950;5.346;2023-07-02T07:35:49;18.70;59.80
33903;DHT22;20194;50.950;5.346;2023-07-02T07:38:15;18.70;58.90
33903;DHT22;20194;50.950;5.346;2023-07-02T07:40:41;18.70;57.60
33903;DHT22;20194;50.950;5.346;2023-07-02T07:43:08;18.70;59.20
33903;DHT22;20194;50.950;5.346;2023-07-02T07:45:33;18.70;59.50
33903;DHT22;20194;50.950;5.346;2023-07-02T07:48:00;18.70;59.20
33903;DHT22;20194;50.950;5.346;2023-07-02T07:50:25;18.60;60.10
33903;DHT22;20194;50.950;5.346;2023-07-02T07:52:51;18.60;59.60
33903;DHT22;20194;50.950;5.346;2023-07-02T07:55:17;18.60;59.50
33903;DHT22;20194;50.950;5.346;2023-07-02T07:57:43;18.60;59.70
33903;DHT22;20194;50.950;5.346;2023-07-02T08:00:09;18.80;55.70
33903;DHT22;20194;50.950;5.346;2023-07-02T08:02:38;18.80;55.50
33903;DHT22;20194;50.950;5.346;2023-07-02T08:05:04;19.00;55.10
33903;DHT22;20194;50.950;5.346;2023-07-02T08:07:33;19.00;55.20
33903;DHT22;20194;50.950;5.346;2023-07-02T08:09:59;19.10;54.10
33903;DHT22;20194;50.950;5.346;2023-07-02T08:12:25;19.20;52.80
33903;DHT22;20194;50.950;5.346;2023-07-02T08:14:57;19.00;52.50
33903;DHT22;20194;50.950;5.346;2023-07-02T08:17:23;19.00;52.70
33903;DHT22;20194;50.950;5.346;2023-07-02T08:19:49;18.90;49.70
33903;DHT22;20194;50.950;5.346;2023-07-02T08:22:15;19.10;46.40
33903;DHT22;20194;50.950;5.346;2023-07-02T08:24:40;19.20;50.10
33903;DHT22;20194;50.950;5.346;2023-07-02T08:27:06;19.30;48.00
33903;DHT22;20194;50.950;5.346;2023-07-02T08:29:32;19.00;50.00
33903;DHT22;20194;50.950;5.346;2023-07-02T08:31:58;19.00;50.30
33903;DHT22;20194;50.950;5.346;2023-07-02T08:34:25;19.20;52.50
33903;DHT22;20194;50.950;5.346;2023-07-02T08:36:50;19.70;50.60
33903;DHT22;20194;50.950;5.346;2023-07-02T08:39:17;20.00;30.00
33903;DHT22;20194;50.950;5.346;2023-07-02T08:41:44;20.30;30.90
33903;DHT22;20194;50.950;5.346;2023-07-02T08:44:11;20.70;19.60
33903;DHT22;20194;50.950;5.346;2023-07-02T08:46:37;20.80;11.70
33903;DHT22;20194;50.950;5.346;2023-07-02T08:49:03;20.90;11.10
33903;DHT22;20194;50.950;5.346;2023-07-02T08:51:29;21.00;10.30
33903;DHT22;20194;50.950;5.346;2023-07-02T08:53:54;21.30;12.50
33903;DHT22;20194;50.950;5.346;2023-07-02T08:56:20;21.20;1.00
33903;DHT22;20194;50.950;5.346;2023-07-02T08:58:46;21.20;1.00
33903;DHT22;20194;50.950;5.346;2023-07-02T09:01:13;21.30;1.00
33903;DHT22;20194;50.950;5.346;2023-07-02T09:03:40;21.20;1.00
33903;DHT22;20194;50.950;5.346;2023-07-02T09:06:08;21.10;1.00
33903;DHT22;20194;50.950;5.346;2023-07-02T09:08:35;20.90;1.00
33903;DHT22;20194;50.950;5.346;2023-07-02T09:11:10;20.60;1.00
33903;DHT22;20194;50.950;5.346;2023-07-02T09:16:31;21.00;1.00
33903;DHT22;20194;50.950;5.346;2023-07-02T09:19:07;21.50;1.00
33903;DHT22;20194;50.950;5.346;2023-07-02T09:21:48;21.90;1.00
33903;DHT22;20194;50.950;5.346;2023-07-02T09:24:23;22.50;1.00
33903;DHT22;20194;50.950;5.346;2023-07-02T09:26:53;22.40;1.00
33903;DHT22;20194;50.950;5.346;2023-07-02T09:29:23;22.50;1.00
33903;DHT22;20194;50.950;5.346;2023-07-02T09:31:49;22.30;1.00
33903;DHT22;20194;50.950;5.346;2023-07-02T09:34:15;22.00;1.00
33903;DHT22;20194;50.950;5.346;2023-07-02T09:36:41;21.60;1.00
33903;DHT22;20194;50.950;5.346;2023-07-02T09:39:18;21.70;1.00
33903;DHT22;20194;50.950;5.346;2023-07-02T09:41:50;21.70;1.00
33903;DHT22;20194;50.950;5.346;2023-07-02T09:44:17;22.00;1.00
33903;DHT22;20194;50.950;5.346;2023-07-02T09:47:21;22.00;1.00
33903;DHT22;20194;50.950;5.346;2023-07-02T09:49:49;21.80;99.90
33903;DHT22;20194;50.950;5.346;2023-07-02T09:52:15;22.20;1.00
33903;DHT22;20194;50.950;5.346;2023-07-02T09:54:42;22.50;1.00
33903;DHT22;20194;50.950;5.346;2023-07-02T09:57:07;22.30;99.90
33903;DHT22;20194;50.950;5.346;2023-07-02T09:59:34;22.40;99.90
33903;DHT22;20194;50.950;5.346;2023-07-02T10:02:00;22.70;99.90
33903;DHT22;20194;50.950;5.346;2023-07-02T10:04:26;22.70;99.90
33903;DHT22;20194;50.950;5.346;2023-07-02T10:06:53;22.80;99.90
33903;DHT22;20194;50.950;5.346;2023-07-02T10:09:20;22.70;1.00
33903;DHT22;20194;50.950;5.346;2023-07-02T10:11:46;22.60;99.90
33903;DHT22;20194;50.950;5.346;2023-07-02T10:14:12;22.70;73.30
33903;DHT22;20194;50.950;5.346;2023-07-02T10:16:55;22.90;1.00
33903;DHT22;20194;50.950;5.346;2023-07-02T10:19:21;23.20;99.90
33903;DHT22;20194;50.950;5.346;2023-07-02T10:22:03;22.90;1.00
33903;DHT22;20194;50.950;5.346;2023-07-02T10:24:30;22.60;99.90
33903;DHT22;20194;50.950;5.346;2023-07-02T10:27:00;22.70;99.90
33903;DHT22;20194;50.950;5.346;2023-07-02T10:29:28;22.70;99.90
33903;DHT22;20194;50.950;5.346;2023-07-02T10:31:57;22.60;99.90
33903;DHT22;20194;50.950;5.346;2023-07-02T10:34:33;22.30;1.00
33903;DHT22;20194;50.950;5.346;2023-07-02T10:37:03;22.10;1.00
33903;DHT22;20194;50.950;5.346;2023-07-02T10:39:38;21.70;1.00
33903;DHT22;20194;50.950;5.346;2023-07-02T10:42:08;21.90;1.00
33903;DHT22;20194;50.950;5.346;2023-07-02T10:44:35;22.20;1.00
33903;DHT22;20194;50.950;5.346;2023-07-02T10:47:11;22.50;1.00
33903;DHT22;20194;50.950;5.346;2023-07-02T10:49:37;22.30;1.00
33903;DHT22;20194;50.950;5.346;2023-07-02T10:52:03;22.40;1.00
33903;DHT22;20194;50.950;5.346;2023-07-02T10:54:42;22.50;1.00
33903;DHT22;20194;50.950;5.346;2023-07-02T10:57:10;22.40;1.00
33903;DHT22;20194;50.950;5.346;2023-07-02T10:59:35;22.20;1.00
33903;DHT22;20194;50.950;5.346;2023-07-02T11:02:02;22.20;1.00
33903;DHT22;20194;50.950;5.346;2023-07-02T11:04:33;22.50;1.00
33903;DHT22;20194;50.950;5.346;2023-07-02T11:07:00;22.80;1.00
33903;DHT22;20194;50.950;5.346;2023-07-02T11:09:25;23.10;1.00
33903;DHT22;20194;50.950;5.346;2023-07-02T11:12:01;23.20;1.00
33903;DHT22;20194;50.950;5.346;2023-07-02T11:14:32;23.30;1.00
33903;DHT22;20194;50.950;5.346;2023-07-02T11:16:59;22.90;1.00
33903;DHT22;20194;50.950;5.346;2023-07-02T11:19:25;22.70;1.00
33903;DHT22;20194;50.950;5.346;2023-07-02T11:21:56;22.90;1.00
33903;DHT22;20194;50.950;5.346;2023-07-02T11:27:01;23.30;1.00
33903;DHT22;20194;50.950;5.346;2023-07-02T11:29:29;23.00;1.00
33903;DHT22;20194;50.950;5.346;2023-07-02T11:32:04;22.50;1.00
33903;DHT22;20194;50.950;5.346;2023-07-02T11:34:30;22.50;1.00
33903;DHT22;20194;50.950;5.346;2023-07-02T11:36:56;22.60;1.00
33903;DHT22;20194;50.950;5.346;2023-07-02T11:39:21;22.70;1.00
33903;DHT22;20194;50.950;5.346;2023-07-02T11:41:48;22.70;1.00
33903;DHT22;20194;50.950;5.346;2023-07-02T11:44:16;22.60;1.00
33903;DHT22;20194;50.950;5.346;2023-07-02T11:46:41;22.50;1.00
33903;DHT22;20194;50.950;5.346;2023-07-02T11:49:07;22.30;1.00
33903;DHT22;20194;50.950;5.346;2023-07-02T11:51:38;22.10;1.00
33903;DHT22;20194;50.950;5.346;2023-07-02T11:54:04;22.20;1.00
33903;DHT22;20194;50.950;5.346;2023-07-02T11:56:30;22.20;1.00
33903;DHT22;20194;50.950;5.346;2023-07-02T11:58:56;22.20;1.00
33903;DHT22;20194;50.950;5.346;2023-07-02T12:01:22;22.40;1.00
33903;DHT22;20194;50.950;5.346;2023-07-02T12:03:47;22.60;1.00
33903;DHT22;20194;50.950;5.346;2023-07-02T12:06:13;22.70;1.00
33903;DHT22;20194;50.950;5.346;2023-07-02T12:08:39;22.70;1.00
33903;DHT22;20194;50.950;5.346;2023-07-02T12:11:05;22.50;1.00
33903;DHT22;20194;50.950;5.346;2023-07-02T12:13:30;22.60;1.00
33903;DHT22;20194;50.950;5.346;2023-07-02T12:15:56;22.10;1.00
33903;DHT22;20194;50.950;5.346;2023-07-02T12:18:22;22.00;1.00
33903;DHT22;20194;50.950;5.346;2023-07-02T12:20:47;22.20;1.00
33903;DHT22;20194;50.950;5.346;2023-07-02T12:23:13;22.30;1.00
33903;DHT22;20194;50.950;5.346;2023-07-02T12:25:39;22.00;1.00
33903;DHT22;20194;50.950;5.346;2023-07-02T12:28:05;22.10;1.00
33903;DHT22;20194;50.950;5.346;2023-07-02T12:30:31;22.10;1.00
33903;DHT22;20194;50.950;5.346;2023-07-02T12:32:57;22.30;1.00
33903;DHT22;20194;50.950;5.346;2023-07-02T12:35:24;22.40;1.00
33903;DHT22;20194;50.950;5.346;2023-07-02T12:37:51;22.70;1.00
33903;DHT22;20194;50.950;5.346;2023-07-02T12:40:18;23.00;1.00
33903;DHT22;20194;50.950;5.346;2023-07-02T12:42:45;23.00;1.00
33903;DHT22;20194;50.950;5.346;2023-07-02T12:45:12;23.30;1.00
33903;DHT22;20194;50.950;5.346;2023-07-02T12:47:38;23.10;99.90
33903;DHT22;20194;50.950;5.346;2023-07-02T12:50:05;23.30;1.00
33903;DHT22;20194;50.950;5.346;2023-07-02T12:52:32;23.70;1.00
33903;DHT22;20194;50.950;5.346;2023-07-02T12:54:58;23.90;99.90
33903;DHT22;20194;50.950;5.346;2023-07-02T12:57:23;24.10;99.90
33903;DHT22;20194;50.950;5.346;2023-07-02T12:59:49;24.20;99.90
33903;DHT22;20194;50.950;5.346;2023-07-02T13:02:16;24.00;99.90
33903;DHT22;20194;50.950;5.346;2023-07-02T13:04:41;23.70;99.90
33903;DHT22;20194;50.950;5.346;2023-07-02T13:07:07;23.50;99.90
33903;DHT22;20194;50.950;5.346;2023-07-02T13:09:32;23.40;1.00
33903;DHT22;20194;50.950;5.346;2023-07-02T13:11:58;23.00;1.00
33903;DHT22;20194;50.950;5.346;2023-07-02T13:14:24;23.20;1.00
33903;DHT22;20194;50.950;5.346;2023-07-02T13:16:50;23.50;99.90
33903;DHT22;20194;50.950;5.346;2023-07-02T13:19:16;23.70;99.90
33903;DHT22;20194;50.950;5.346;2023-07-02T13:21:42;23.70;99.90
33903;DHT22;20194;50.950;5.346;2023-07-02T13:24:07;23.50;99.90
33903;DHT22;20194;50.950;5.346;2023-07-02T13:26:33;23.70;99.90
33903;DHT22;20194;50.950;5.346;2023-07-02T13:28:59;23.70;99.90
33903;DHT22;20194;50.950;5.346;2023-07-02T13:31:24;23.80;99.90
33903;DHT22;20194;50.950;5.346;2023-07-02T13:33:50;23.50;99.90
33903;DHT22;20194;50.950;5.346;2023-07-02T13:36:16;23.20;99.90
33903;DHT22;20194;50.950;5.346;2023-07-02T13:38:42;23.40;99.90
33903;DHT22;20194;50.950;5.346;2023-07-02T13:41:08;23.60;99.90
33903;DHT22;20194;50.950;5.346;2023-07-02T13:43:34;23.50;99.90
33903;DHT22;20194;50.950;5.346;2023-07-02T13:46:02;23.60;99.90
33903;DHT22;20194;50.950;5.346;2023-07-02T13:48:28;23.40;99.90
33903;DHT22;20194;50.950;5.346;2023-07-02T13:50:54;23.50;99.90
33903;DHT22;20194;50.950;5.346;2023-07-02T13:53:19;23.50;99.90
33903;DHT22;20194;50.950;5.346;2023-07-02T13:55:45;23.20;99.90
33903;DHT22;20194;50.950;5.346;2023-07-02T13:58:11;23.20;99.90
33903;DHT22;20194;50.950;5.346;2023-07-02T14:00:37;23.40;99.90
33903;DHT22;20194;50.950;5.346;2023-07-02T14:03:03;23.50;99.90
33903;DHT22;20194;50.950;5.346;2023-07-02T14:05:29;23.20;99.90
33903;DHT22;20194;50.950;5.346;2023-07-02T14:07:55;23.20;99.90
33903;DHT22;20194;50.950;5.346;2023-07-02T14:10:21;23.40;1.00
33903;DHT22;20194;50.950;5.346;2023-07-02T14:12:46;23.40;99.90
33903;DHT22;20194;50.950;5.346;2023-07-02T14:15:12;23.30;99.90
33903;DHT22;20194;50.950;5.346;2023-07-02T14:17:38;23.40;99.90
33903;DHT22;20194;50.950;5.346;2023-07-02T14:20:05;23.70;99.90
33903;DHT22;20194;50.950;5.346;2023-07-02T14:22:32;23.40;99.90
33903;DHT22;20194;50.950;5.346;2023-07-02T14:24:58;23.50;99.90
33903;DHT22;20194;50.950;5.346;2023-07-02T14:27:24;23.40;99.90
33903;DHT22;20194;50.950;5.346;2023-07-02T14:29:49;23.40;99.90
33903;DHT22;20194;50.950;5.346;2023-07-02T14:32:16;23.40;99.90
33903;DHT22;20194;50.950;5.346;2023-07-02T14:34:42;23.20;99.90
33903;DHT22;20194;50.950;5.346;2023-07-02T14:37:08;23.30;99.90
33903;DHT22;20194;50.950;5.346;2023-07-02T14:39:34;23.50;1.00
33903;DHT22;20194;50.950;5.346;2023-07-02T14:41:59;23.80;99.90
33903;DHT22;20194;50.950;5.346;2023-07-02T14:44:25;23.90;99.90
33903;DHT22;20194;50.950;5.346;2023-07-02T14:46:51;24.00;99.90
33903;DHT22;20194;50.950;5.346;2023-07-02T14:49:17;23.80;99.90
33903;DHT22;20194;50.950;5.346;2023-07-02T14:51:42;23.80;99.90
33903;DHT22;20194;50.950;5.346;2023-07-02T14:54:09;24.00;99.90
33903;DHT22;20194;50.950;5.346;2023-07-02T14:56:35;24.10;99.90
33903;DHT22;20194;50.950;5.346;2023-07-02T14:59:02;24.10;99.90
33903;DHT22;20194;50.950;5.346;2023-07-02T15:01:28;24.00;99.90
33903;DHT22;20194;50.950;5.346;2023-07-02T15:03:54;23.50;99.90
33903;DHT22;20194;50.950;5.346;2023-07-02T15:06:20;23.50;99.90
33903;DHT22;20194;50.950;5.346;2023-07-02T15:08:46;23.50;99.90
33903;DHT22;20194;50.950;5.346;2023-07-02T15:11:13;23.50;99.90
33903;DHT22;20194;50.950;5.346;2023-07-02T15:13:39;23.50;99.90
33903;DHT22;20194;50.950;5.346;2023-07-02T15:16:07;23.60;99.90
33903;DHT22;20194;50.950;5.346;2023-07-02T15:18:33;23.60;99.90
33903;DHT22;20194;50.950;5.346;2023-07-02T15:20:59;23.50;99.90
33903;DHT22;20194;50.950;5.346;2023-07-02T15:23:25;23.50;99.90
33903;DHT22;20194;50.950;5.346;2023-07-02T15:28:22;23.50;1.00
33903;DHT22;20194;50.950;5.346;2023-07-02T15:30:55;23.60;1.00
33903;DHT22;20194;50.950;5.346;2023-07-02T15:33:22;23.70;99.90
33903;DHT22;20194;50.950;5.346;2023-07-02T15:35:48;23.90;99.90
33903;DHT22;20194;50.950;5.346;2023-07-02T15:38:14;23.80;99.90
33903;DHT22;20194;50.950;5.346;2023-07-02T15:40:40;23.60;99.90